sensor_id;sensor_type;location;lat;lon;timestamp;temperature;humidity
21393;DHT22;10857;52.228;21.026;2023-10-13T00:02:08;11.30;99.90
21393;DHT22;10857;52.228;21.026;2023-10-13T00:04:35;11.30;99.90
21393;DHT22;10857;52.228;21.026;2023-10-13T00:07:03;11.20;99.90
21393;DHT22;10857;52.228;21.026;2023-10-13T00:09:36;11.10;99.90
21393;DHT22;10857;52.228;21.026;2023-10-13T00:12:08;11.10;99.90
21393;DHT22;10857;52.228;21.026;2023-10-13T00:14:44;11.10;99.90
21393;DHT22;10857;52.228;21.026;2023-10-13T00:17:13;11.00;99.90
21393;DHT22;10857;52.228;21.026;2023-10-13T00:19:47;11.10;99.90
21393;DHT22;10857;52.228;21.026;2023-10-13T00:22:20;11.10;99.90
21393;DHT22;10857;52.228;21.026;2023-10-13T00:24:49;11.10;99.90
21393;DHT22;10857;52.228;21.026;2023-10-13T00:27:20;11.00;99.90
21393;DHT22;10857;52.228;21.026;2023-10-13T00:30:07;11.00;99.90
21393;DHT22;10857;52.228;21.026;2023-10-13T00:32:51;11.00;99.90
21393;DHT22;10857;52.228;21.026;2023-10-13T00:35:28;10.90;99.90
21393;DHT22;10857;52.228;21.026;2023-10-13T00:37:56;11.00;99.90
21393;DHT22;10857;52.228;21.026;2023-10-13T00:40:32;11.10;99.90
21393;DHT22;10857;52.228;21.026;2023-10-13T00:43:00;11.00;99.90
21393;DHT22;10857;52.228;21.026;2023-10-13T00:45:51;11.00;99.90
21393;DHT22;10857;52.228;21.026;2023-10-13T00:48:28;11.00;99.90
21393;DHT22;10857;52.228;21.026;2023-10-13T00:50:57;11.00;99.90
21393;DHT22;10857;52.228;21.026;2023-10-13T00:53:31;11.00;99.90
21393;DHT22;10857;52.228;21.026;2023-10-13T00:56:03;11.00;99.90
21393;DHT22;10857;52.228;21.026;2023-10-13T00:58:34;11.00;99.90
21393;DHT22;10857;52.228;21.026;2023-10-13T01:01:03;11.10;99.90
21393;DHT22;10857;52.228;21.026;2023-10-13T01:03:53;11.10;99.90
21393;DHT22;10857;52.228;21.026;2023-10-13T01:06:26;11.00;99.90
21393;DHT22;10857;52.228;21.026;2023-10-13T01:11:30;11.10;99.90
21393;DHT22;10857;52.228;21.026;2023-10-13T01:14:02;11.00;99.90
21393;DHT22;10857;52.228;21.026;2023-10-13T01:16:32;11.00;99.90
21393;DHT22;10857;52.228;21.026;2023-10-13T01:19:02;10.90;99.90
21393;DHT22;10857;52.228;21.026;2023-10-13T01:21:35;11.00;99.90
21393;DHT22;10857;52.228;21.026;2023-10-13T01:24:06;11.10;99.90
21393;DHT22;10857;52.228;21.026;2023-10-13T01:26:36;11.10;99.90
21393;DHT22;10857;52.228;21.026;2023-10-13T01:29:15;11.10;99.90
21393;DHT22;10857;52.228;21.026;2023-10-13T01:31:47;11.00;99.90
21393;DHT22;10857;52.228;21.026;2023-10-13T01:34:15;11.10;99.90
21393;DHT22;10857;52.228;21.026;2023-10-13T01:36:50;11.10;99.90
21393;DHT22;10857;52.228;21.026;2023-10-13T01:39:20;11.20;99.90
21393;DHT22;10857;52.228;21.026;2023-10-13T01:41:49;11.10;99.90
21393;DHT22;10857;52.228;21.026;2023-10-13T01:44:27;11.20;99.90
21393;DHT22;10857;52.228;21.026;2023-10-13T01:47:00;11.20;99.90
21393;DHT22;10857;52.228;21.026;2023-10-13T01:49:34;11.20;99.90
21393;DHT22;10857;52.228;21.026;2023-10-13T01:52:10;11.20;99.90
21393;DHT22;10857;52.228;21.026;2023-10-13T01:54:47;11.10;99.90
21393;DHT22;10857;52.228;21.026;2023-10-13T01:57:17;11.10;99.90
21393;DHT22;10857;52.228;21.026;2023-10-13T01:59:50;11.10;99.90
21393;DHT22;10857;52.228;21.026;2023-10-13T02:02:17;11.10;99.90
21393;DHT22;10857;52.228;21.026;2023-10-13T02:04:58;11.10;99.90
21393;DHT22;10857;52.228;21.026;2023-10-13T02:07:29;11.20;99.90
21393;DHT22;10857;52.228;21.026;2023-10-13T02:09:58;11.10;99.90
21393;DHT22;10857;52.228;21.026;2023-10-13T02:12:27;11.20;99.90
21393;DHT22;10857;52.228;21.026;2023-10-13T02:15:11;11.20;99.90
21393;DHT22;10857;52.228;21.026;2023-10-13T02:17:53;11.20;99.90
21393;DHT22;10857;52.228;21.026;2023-10-13T02:20:22;11.20;99.90
21393;DHT22;10857;52.228;21.026;2023-10-13T02:22:56;11.20;99.90
21393;DHT22;10857;52.228;21.026;2023-10-13T02:25:24;11.20;99.90
21393;DHT22;10857;52.228;21.026;2023-10-13T02:28:13;11.20;99.90
21393;DHT22;10857;52.228;21.026;2023-10-13T02:30:42;11.20;99.90
21393;DHT22;10857;52.228;21.026;2023-10-13T02:33:15;11.20;99.90
21393;DHT22;10857;52.228;21.026;2023-10-13T02:35:48;11.30;99.90
21393;DHT22;10857;52.228;21.026;2023-10-13T02:38:24;11.20;99.90
21393;DHT22;10857;52.228;21.026;2023-10-13T02:41:20;11.30;99.90
21393;DHT22;10857;52.228;21.026;2023-10-13T02:43:55;11.30;99.90
21393;DHT22;10857;52.228;21.026;2023-10-13T02:46:23;11.20;99.90
21393;DHT22;10857;52.228;21.026;2023-10-13T02:48:51;11.20;99.90
21393;DHT22;10857;52.228;21.026;2023-10-13T02:51:21;11.20;99.90
21393;DHT22;10857;52.228;21.026;2023-10-13T02:53:56;11.30;99.90
21393;DHT22;10857;52.228;21.026;2023-10-13T02:56:45;11.20;99.90
21393;DHT22;10857;52.228;21.026;2023-10-13T02:59:34;11.20;99.90
21393;DHT22;10857;52.228;21.026;2023-10-13T03:02:02;11.20;99.90
21393;DHT22;10857;52.228;21.026;2023-10-13T03:04:47;11.20;99.90
21393;DHT22;10857;52.228;21.026;2023-10-13T03:07:16;11.20;99.90
21393;DHT22;10857;52.228;21.026;2023-10-13T03:09:50;11.20;99.90
21393;DHT22;10857;52.228;21.026;2023-10-13T03:12:21;11.20;99.90
21393;DHT22;10857;52.228;21.026;2023-10-13T03:14:48;11.10;99.90
21393;DHT22;10857;52.228;21.026;2023-10-13T03:17:15;11.00;99.90
21393;DHT22;10857;52.228;21.026;2023-10-13T03:19:46;11.00;99.90
21393;DHT22;10857;52.228;21.026;2023-10-13T03:22:21;10.90;99.90
21393;DHT22;10857;52.228;21.026;2023-10-13T03:24:59;11.00;99.90
21393;DHT22;10857;52.228;21.026;2023-10-13T03:27:33;11.00;99.90
21393;DHT22;10857;52.228;21.026;2023-10-13T03:30:28;11.10;99.90
21393;DHT22;10857;52.228;21.026;2023-10-13T03:33:03;11.10;99.90
21393;DHT22;10857;52.228;21.026;2023-10-13T03:35:36;11.20;99.90
21393;DHT22;10857;52.228;21.026;2023-10-13T03:38:09;11.20;99.90
21393;DHT22;10857;52.228;21.026;2023-10-13T03:41:01;11.30;99.90
21393;DHT22;10857;52.228;21.026;2023-10-13T03:43:39;11.30;99.90
21393;DHT22;10857;52.228;21.026;2023-10-13T03:46:13;11.30;99.90
21393;DHT22;10857;52.228;21.026;2023-10-13T03:48:40;11.30;99.90
21393;DHT22;10857;52.228;21.026;2023-10-13T03:51:27;11.20;99.90
21393;DHT22;10857;52.228;21.026;2023-10-13T03:54:06;11.20;99.90
21393;DHT22;10857;52.228;21.026;2023-10-13T03:56:38;11.20;99.90
21393;DHT22;10857;52.228;21.026;2023-10-13T03:59:19;11.30;99.90
21393;DHT22;10857;52.228;21.026;2023-10-13T04:01:50;11.30;99.90
21393;DHT22;10857;52.228;21.026;2023-10-13T04:04:20;11.30;99.90
21393;DHT22;10857;52.228;21.026;2023-10-13T04:07:05;11.30;99.90
21393;DHT22;10857;52.228;21.026;2023-10-13T04:09:39;11.20;99.90
21393;DHT22;10857;52.228;21.026;2023-10-13T04:12:07;11.20;99.90
21393;DHT22;10857;52.228;21.026;2023-10-13T04:15:14;11.20;99.90
21393;DHT22;10857;52.228;21.026;2023-10-13T04:17:44;11.00;99.90
21393;DHT22;10857;52.228;21.026;2023-10-13T04:20:13;11.10;99.90
21393;DHT22;10857;52.228;21.026;2023-10-13T04:22:42;11.10;99.90
21393;DHT22;10857;52.228;21.026;2023-10-13T04:25:38;11.10;99.90
21393;DHT22;10857;52.228;21.026;2023-10-13T04:28:18;11.20;99.90
21393;DHT22;10857;52.228;21.026;2023-10-13T04:30:54;11.20;99.90
21393;DHT22;10857;52.228;21.026;2023-10-13T04:33:25;11.20;99.90
21393;DHT22;10857;52.228;21.026;2023-10-13T04:36:04;11.30;99.90
21393;DHT22;10857;52.228;21.026;2023-10-13T04:38:50;11.20;99.90
21393;DHT22;10857;52.228;21.026;2023-10-13T04:41:32;11.20;99.90
21393;DHT22;10857;52.228;21.026;2023-10-13T04:44:18;11.20;99.90
21393;DHT22;10857;52.228;21.026;2023-10-13T04:47:04;11.20;99.90
21393;DHT22;10857;52.228;21.026;2023-10-13T04:49:34;11.20;99.90
21393;DHT22;10857;52.228;21.026;2023-10-13T04:52:22;11.10;99.90
21393;DHT22;10857;52.228;21.026;2023-10-13T04:55:16;11.10;99.90
21393;DHT22;10857;52.228;21.026;2023-10-13T04:58:22;11.10;99.90
21393;DHT22;10857;52.228;21.026;2023-10-13T05:01:31;11.10;99.90
21393;DHT22;10857;52.228;21.026;2023-10-13T05:04:27;11.10;99.90
21393;DHT22;10857;52.228;21.026;2023-10-13T05:07:29;11.10;99.90
21393;DHT22;10857;52.228;21.026;2023-10-13T05:10:16;11.20;99.90
21393;DHT22;10857;52.228;21.026;2023-10-13T05:13:02;11.20;99.90
21393;DHT22;10857;52.228;21.026;2023-10-13T05:15:50;11.30;99.90
21393;DHT22;10857;52.228;21.026;2023-10-13T05:18:40;11.30;99.90
21393;DHT22;10857;52.228;21.026;2023-10-13T05:21:27;11.30;99.90
21393;DHT22;10857;52.228;21.026;2023-10-13T05:24:13;11.30;99.90
21393;DHT22;10857;52.228;21.026;2023-10-13T05:27:00;11.30;99.90
21393;DHT22;10857;52.228;21.026;2023-10-13T05:29:47;11.30;99.90
21393;DHT22;10857;52.228;21.026;2023-10-13T05:32:34;11.30;99.90
21393;DHT22;10857;52.228;21.026;2023-10-13T05:35:21;11.20;99.90
21393;DHT22;10857;52.228;21.026;2023-10-13T05:38:10;11.10;99.90
21393;DHT22;10857;52.228;21.026;2023-10-13T05:41:05;11.10;99.90
21393;DHT22;10857;52.228;21.026;2023-10-13T05:43:55;11.20;99.90
21393;DHT22;10857;52.228;21.026;2023-10-13T05:47:19;11.30;99.90
21393;DHT22;10857;52.228;21.026;2023-10-13T05:50:07;11.30;99.90
21393;DHT22;10857;52.228;21.026;2023-10-13T05:53:02;11.40;99.90
21393;DHT22;10857;52.228;21.026;2023-10-13T05:55:40;11.40;99.90
21393;DHT22;10857;52.228;21.026;2023-10-13T05:58:46;11.40;99.90
21393;DHT22;10857;52.228;21.026;2023-10-13T06:01:39;11.40;99.90
21393;DHT22;10857;52.228;21.026;2023-10-13T06:04:32;11.50;99.90
21393;DHT22;10857;52.228;21.026;2023-10-13T06:07:18;11.50;99.90
21393;DHT22;10857;52.228;21.026;2023-10-13T06:10:05;11.70;99.90
21393;DHT22;10857;52.228;21.026;2023-10-13T06:13:03;11.80;99.90
21393;DHT22;10857;52.228;21.026;2023-10-13T06:15:50;11.80;99.90
21393;DHT22;10857;52.228;21.026;2023-10-13T06:18:45;11.90;99.90
21393;DHT22;10857;52.228;21.026;2023-10-13T06:21:39;11.90;99.90
21393;DHT22;10857;52.228;21.026;2023-10-13T06:24:45;11.90;99.90
21393;DHT22;10857;52.228;21.026;2023-10-13T06:27:45;11.90;99.90
21393;DHT22;10857;52.228;21.026;2023-10-13T06:30:30;12.00;99.90
21393;DHT22;10857;52.228;21.026;2023-10-13T06:33:00;12.20;99.90
21393;DHT22;10857;52.228;21.026;2023-10-13T06:35:28;12.20;99.90
21393;DHT22;10857;52.228;21.026;2023-10-13T06:37:56;12.30;99.90
21393;DHT22;10857;52.228;21.026;2023-10-13T06:40:30;12.30;99.90
21393;DHT22;10857;52.228;21.026;2023-10-13T06:43:03;12.40;99.90
21393;DHT22;10857;52.228;21.026;2023-10-13T06:45:48;12.40;99.90
21393;DHT22;10857;52.228;21.026;2023-10-13T06:48:57;12.30;99.90
21393;DHT22;10857;52.228;21.026;2023-10-13T06:51:43;12.30;99.90
21393;DHT22;10857;52.228;21.026;2023-10-13T06:54:29;12.30;99.90
21393;DHT22;10857;52.228;21.026;2023-10-13T06:57:23;12.40;99.90
21393;DHT22;10857;52.228;21.026;2023-10-13T06:59:54;12.40;99.90
21393;DHT22;10857;52.228;21.026;2023-10-13T07:02:47;12.40;99.90
21393;DHT22;10857;52.228;21.026;2023-10-13T07:05:42;12.50;99.90
21393;DHT22;10857;52.228;21.026;2023-10-13T07:08:14;12.50;99.90
21393;DHT22;10857;52.228;21.026;2023-10-13T07:10:55;12.60;99.90
21393;DHT22;10857;52.228;21.026;2023-10-13T07:13:57;12.60;99.90
21393;DHT22;10857;52.228;21.026;2023-10-13T07:17:04;12.70;99.90
21393;DHT22;10857;52.228;21.026;2023-10-13T07:19:34;12.70;99.90
21393;DHT22;10857;52.228;21.026;2023-10-13T07:22:09;12.80;99.90
21393;DHT22;10857;52.228;21.026;2023-10-13T07:24:51;12.80;99.90
21393;DHT22;10857;52.228;21.026;2023-10-13T07:27:25;12.80;99.90
21393;DHT22;10857;52.228;21.026;2023-10-13T07:29:56;12.90;99.90
21393;DHT22;10857;52.228;21.026;2023-10-13T07:32:34;12.80;99.90
21393;DHT22;10857;52.228;21.026;2023-10-13T07:35:06;12.80;99.90
21393;DHT22;10857;52.228;21.026;2023-10-13T07:37:55;12.80;99.90
21393;DHT22;10857;52.228;21.026;2023-10-13T07:40:38;12.80;99.90
21393;DHT22;10857;52.228;21.026;2023-10-13T07:43:40;12.90;99.90
21393;DHT22;10857;52.228;21.026;2023-10-13T07:46:14;12.90;99.90
21393;DHT22;10857;52.228;21.026;2023-10-13T07:48:42;13.00;99.90
21393;DHT22;10857;52.228;21.026;2023-10-13T07:51:14;13.10;99.90
21393;DHT22;10857;52.228;21.026;2023-10-13T07:53:46;13.10;99.90
21393;DHT22;10857;52.228;21.026;2023-10-13T07:56:17;13.20;99.90
21393;DHT22;10857;52.228;21.026;2023-10-13T07:58:58;13.20;99.90
21393;DHT22;10857;52.228;21.026;2023-10-13T08:01:36;13.20;99.90
21393;DHT22;10857;52.228;21.026;2023-10-13T08:04:06;13.20;99.90
21393;DHT22;10857;52.228;21.026;2023-10-13T08:06:48;13.20;99.90
21393;DHT22;10857;52.228;21.026;2023-10-13T08:09:42;13.20;99.90
21393;DHT22;10857;52.228;21.026;2023-10-13T08:12:20;13.30;99.90
21393;DHT22;10857;52.228;21.026;2023-10-13T08:15:04;13.30;99.90
21393;DHT22;10857;52.228;21.026;2023-10-13T08:17:56;13.40;99.90
21393;DHT22;10857;52.228;21.026;2023-10-13T08:20:31;13.30;99.90
21393;DHT22;10857;52.228;21.026;2023-10-13T08:23:05;13.40;99.90
21393;DHT22;10857;52.228;21.026;2023-10-13T08:25:52;13.30;99.90
21393;DHT22;10857;52.228;21.026;2023-10-13T08:28:40;13.30;99.90
21393;DHT22;10857;52.228;21.026;2023-10-13T08:31:27;13.30;99.90
21393;DHT22;10857;52.228;21.026;2023-10-13T08:34:11;13.30;99.90
21393;DHT22;10857;52.228;21.026;2023-10-13T08:36:51;13.30;99.90
21393;DHT22;10857;52.228;21.026;2023-10-13T08:39:24;13.40;99.90
21393;DHT22;10857;52.228;21.026;2023-10-13T08:42:36;13.50;99.90
21393;DHT22;10857;52.228;21.026;2023-10-13T08:45:15;13.50;99.90
21393;DHT22;10857;52.228;21.026;2023-10-13T08:47:59;13.60;99.90
21393;DHT22;10857;52.228;21.026;2023-10-13T08:50:50;13.60;99.90
21393;DHT22;10857;52.228;21.026;2023-10-13T08:53:31;13.60;99.90
21393;DHT22;10857;52.228;21.026;2023-10-13T08:56:14;13.60;99.90
21393;DHT22;10857;52.228;21.026;2023-10-13T08:58:48;13.70;99.90
21393;DHT22;10857;52.228;21.026;2023-10-13T09:01:36;13.80;99.90
21393;DHT22;10857;52.228;21.026;2023-10-13T09:04:24;13.80;99.90
21393;DHT22;10857;52.228;21.026;2023-10-13T09:07:04;13.90;99.90
21393;DHT22;10857;52.228;21.026;2023-10-13T09:09:45;14.00;99.90
21393;DHT22;10857;52.228;21.026;2023-10-13T09:12:19;14.10;99.90
21393;DHT22;10857;52.228;21.026;2023-10-13T09:14:55;14.10;99.90
21393;DHT22;10857;52.228;21.026;2023-10-13T09:17:30;14.10;99.90
21393;DHT22;10857;52.228;21.026;2023-10-13T09:20:10;14.20;99.90
21393;DHT22;10857;52.228;21.026;2023-10-13T09:23:12;14.30;99.90
21393;DHT22;10857;52.228;21.026;2023-10-13T09:25:46;14.40;99.90
21393;DHT22;10857;52.228;21.026;2023-10-13T09:28:37;14.40;99.90
21393;DHT22;10857;52.228;21.026;2023-10-13T09:31:04;14.50;99.90
21393;DHT22;10857;52.228;21.026;2023-10-13T09:33:37;14.50;99.90
21393;DHT22;10857;52.228;21.026;2023-10-13T09:36:13;14.40;99.90
21393;DHT22;10857;52.228;21.026;2023-10-13T09:38:40;14.50;99.90
21393;DHT22;10857;52.228;21.026;2023-10-13T09:41:10;14.50;99.90
21393;DHT22;10857;52.228;21.026;2023-10-13T09:43:46;14.50;99.90
21393;DHT22;10857;52.228;21.026;2023-10-13T09:46:19;14.50;99.90
21393;DHT22;10857;52.228;21.026;2023-10-13T09:48:51;14.70;99.90
21393;DHT22;10857;52.228;21.026;2023-10-13T09:51:41;14.70;99.90
21393;DHT22;10857;52.228;21.026;2023-10-13T09:54:23;14.80;99.90
21393;DHT22;10857;52.228;21.026;2023-10-13T09:57:13;14.90;99.90
21393;DHT22;10857;52.228;21.026;2023-10-13T09:59:55;15.00;99.90
21393;DHT22;10857;52.228;21.026;2023-10-13T10:02:39;15.00;99.90
21393;DHT22;10857;52.228;21.026;2023-10-13T10:05:27;15.00;99.90
21393;DHT22;10857;52.228;21.026;2023-10-13T10:08:07;15.00;99.90
21393;DHT22;10857;52.228;21.026;2023-10-13T10:10:59;15.00;99.90
21393;DHT22;10857;52.228;21.026;2023-10-13T10:13:36;15.00;99.90
21393;DHT22;10857;52.228;21.026;2023-10-13T10:16:11;15.10;99.90
21393;DHT22;10857;52.228;21.026;2023-10-13T10:18:42;15.20;99.90
21393;DHT22;10857;52.228;21.026;2023-10-13T10:21:15;15.20;99.90
21393;DHT22;10857;52.228;21.026;2023-10-13T10:23:52;15.20;99.90
21393;DHT22;10857;52.228;21.026;2023-10-13T10:26:21;15.20;99.90
21393;DHT22;10857;52.228;21.026;2023-10-13T10:28:48;15.30;99.90
21393;DHT22;10857;52.228;21.026;2023-10-13T10:31:16;15.30;99.90
21393;DHT22;10857;52.228;21.026;2023-10-13T10:33:47;15.40;99.90
21393;DHT22;10857;52.228;21.026;2023-10-13T10:36:28;15.50;99.90
21393;DHT22;10857;52.228;21.026;2023-10-13T10:38:58;15.50;99.90
21393;DHT22;10857;52.228;21.026;2023-10-13T10:41:31;15.60;99.90
21393;DHT22;10857;52.228;21.026;2023-10-13T10:44:19;15.60;99.90
21393;DHT22;10857;52.228;21.026;2023-10-13T10:47:11;15.70;99.90
21393;DHT22;10857;52.228;21.026;2023-10-13T10:49:39;15.80;99.90
21393;DHT22;10857;52.228;21.026;2023-10-13T10:52:10;15.80;99.90
21393;DHT22;10857;52.228;21.026;2023-10-13T10:54:45;15.80;99.90
21393;DHT22;10857;52.228;21.026;2023-10-13T10:57:18;15.90;99.90
21393;DHT22;10857;52.228;21.026;2023-10-13T10:59:47;15.90;99.90
21393;DHT22;10857;52.228;21.026;2023-10-13T11:02:34;15.90;99.90
21393;DHT22;10857;52.228;21.026;2023-10-13T11:05:01;16.00;99.90
21393;DHT22;10857;52.228;21.026;2023-10-13T11:07:29;16.10;99.90
21393;DHT22;10857;52.228;21.026;2023-10-13T11:10:10;16.10;99.90
21393;DHT22;10857;52.228;21.026;2023-10-13T11:12:57;16.10;99.90
21393;DHT22;10857;52.228;21.026;2023-10-13T11:15:49;16.20;99.90
21393;DHT22;10857;52.228;21.026;2023-10-13T11:18:17;16.30;99.90
21393;DHT22;10857;52.228;21.026;2023-10-13T11:20:55;16.30;99.90
21393;DHT22;10857;52.228;21.026;2023-10-13T11:23:22;16.30;99.90
21393;DHT22;10857;52.228;21.026;2023-10-13T11:26:00;16.50;99.90
21393;DHT22;10857;52.228;21.026;2023-10-13T11:28:32;16.50;99.90
21393;DHT22;10857;52.228;21.026;2023-10-13T11:31:01;16.50;99.90
21393;DHT22;10857;52.228;21.026;2023-10-13T11:33:43;16.60;99.90
21393;DHT22;10857;52.228;21.026;2023-10-13T11:36:13;16.70;99.90
21393;DHT22;10857;52.228;21.026;2023-10-13T11:38:44;16.70;99.90
21393;DHT22;10857;52.228;21.026;2023-10-13T11:41:14;16.80;99.90
21393;DHT22;10857;52.228;21.026;2023-10-13T11:43:44;16.90;99.90
21393;DHT22;10857;52.228;21.026;2023-10-13T11:46:25;17.00;99.90
21393;DHT22;10857;52.228;21.026;2023-10-13T11:49:13;17.10;99.90
21393;DHT22;10857;52.228;21.026;2023-10-13T11:51:49;17.10;99.90
21393;DHT22;10857;52.228;21.026;2023-10-13T11:54:18;17.20;99.90
21393;DHT22;10857;52.228;21.026;2023-10-13T11:56:46;17.20;99.90
21393;DHT22;10857;52.228;21.026;2023-10-13T11:59:14;17.30;99.90
21393;DHT22;10857;52.228;21.026;2023-10-13T12:01:48;17.40;99.90
21393;DHT22;10857;52.228;21.026;2023-10-13T12:04:35;17.40;99.90
21393;DHT22;10857;52.228;21.026;2023-10-13T12:07:18;17.50;99.90
21393;DHT22;10857;52.228;21.026;2023-10-13T12:09:50;17.70;99.90
21393;DHT22;10857;52.228;21.026;2023-10-13T12:12:24;17.80;99.90
21393;DHT22;10857;52.228;21.026;2023-10-13T12:14:52;17.90;99.90
21393;DHT22;10857;52.228;21.026;2023-10-13T12:17:30;18.10;99.90
21393;DHT22;10857;52.228;21.026;2023-10-13T12:20:09;18.20;99.90
21393;DHT22;10857;52.228;21.026;2023-10-13T12:22:48;18.20;99.90
21393;DHT22;10857;52.228;21.026;2023-10-13T12:25:27;18.10;99.90
21393;DHT22;10857;52.228;21.026;2023-10-13T12:28:14;18.20;99.90
21393;DHT22;10857;52.228;21.026;2023-10-13T12:30:55;18.20;99.90
21393;DHT22;10857;52.228;21.026;2023-10-13T12:33:31;18.10;99.90
21393;DHT22;10857;52.228;21.026;2023-10-13T12:36:04;18.10;99.90
21393;DHT22;10857;52.228;21.026;2023-10-13T12:39:14;18.10;99.90
21393;DHT22;10857;52.228;21.026;2023-10-13T12:42:19;18.00;99.90
21393;DHT22;10857;52.228;21.026;2023-10-13T12:45:55;18.10;99.90
21393;DHT22;10857;52.228;21.026;2023-10-13T12:49:14;18.10;99.90
21393;DHT22;10857;52.228;21.026;2023-10-13T12:52:20;18.20;99.90
21393;DHT22;10857;52.228;21.026;2023-10-13T12:55:23;18.20;99.90
21393;DHT22;10857;52.228;21.026;2023-10-13T12:58:05;18.20;99.90
21393;DHT22;10857;52.228;21.026;2023-10-13T13:01:09;18.20;99.90
21393;DHT22;10857;52.228;21.026;2023-10-13T13:03:54;18.10;99.90
21393;DHT22;10857;52.228;21.026;2023-10-13T13:06:43;18.00;99.90
21393;DHT22;10857;52.228;21.026;2023-10-13T13:09:14;18.00;99.90
21393;DHT22;10857;52.228;21.026;2023-10-13T13:11:41;18.00;99.90
21393;DHT22;10857;52.228;21.026;2023-10-13T13:14:09;18.00;99.90
21393;DHT22;10857;52.228;21.026;2023-10-13T13:16:36;18.00;99.90
21393;DHT22;10857;52.228;21.026;2023-10-13T13:19:06;18.00;99.90
21393;DHT22;10857;52.228;21.026;2023-10-13T13:21:42;17.90;99.90
21393;DHT22;10857;52.228;21.026;2023-10-13T13:24:14;17.90;99.90
21393;DHT22;10857;52.228;21.026;2023-10-13T13:26:41;17.90;99.90
21393;DHT22;10857;52.228;21.026;2023-10-13T13:29:17;17.90;99.90
21393;DHT22;10857;52.228;21.026;2023-10-13T13:32:10;17.90;99.90
21393;DHT22;10857;52.228;21.026;2023-10-13T13:35:17;17.80;99.90
21393;DHT22;10857;52.228;21.026;2023-10-13T13:37:49;17.80;99.90
21393;DHT22;10857;52.228;21.026;2023-10-13T13:40:39;17.80;99.90
21393;DHT22;10857;52.228;21.026;2023-10-13T13:43:11;17.80;99.90
21393;DHT22;10857;52.228;21.026;2023-10-13T13:46:13;17.80;99.90
21393;DHT22;10857;52.228;21.026;2023-10-13T13:49:07;17.80;99.90
21393;DHT22;10857;52.228;21.026;2023-10-13T13:51:59;17.80;99.90
21393;DHT22;10857;52.228;21.026;2023-10-13T13:54:43;17.80;99.90
21393;DHT22;10857;52.228;21.026;2023-10-13T13:57:25;17.70;99.90
21393;DHT22;10857;52.228;21.026;2023-10-13T14:00:37;17.70;99.90
21393;DHT22;10857;52.228;21.026;2023-10-13T14:03:19;17.70;99.90
21393;DHT22;10857;52.228;21.026;2023-10-13T14:06:06;17.70;99.90
21393;DHT22;10857;52.228;21.026;2023-10-13T14:08:46;17.70;99.90
21393;DHT22;10857;52.228;21.026;2023-10-13T14:11:25;17.70;99.90
21393;DHT22;10857;52.228;21.026;2023-10-13T14:14:14;17.70;99.90
21393;DHT22;10857;52.228;21.026;2023-10-13T14:16:57;17.60;99.90
21393;DHT22;10857;52.228;21.026;2023-10-13T14:20:35;17.70;99.90
21393;DHT22;10857;52.228;21.026;2023-10-13T14:23:26;17.60;99.90
21393;DHT22;10857;52.228;21.026;2023-10-13T14:25:58;17.60;99.90
21393;DHT22;10857;52.228;21.026;2023-10-13T14:28:25;17.60;99.90
21393;DHT22;10857;52.228;21.026;2023-10-13T14:31:05;17.60;99.90
21393;DHT22;10857;52.228;21.026;2023-10-13T14:33:40;17.60;99.90
21393;DHT22;10857;52.228;21.026;2023-10-13T14:36:10;17.70;99.90
21393;DHT22;10857;52.228;21.026;2023-10-13T14:38:39;17.70;99.90
21393;DHT22;10857;52.228;21.026;2023-10-13T14:41:12;17.60;99.90
21393;DHT22;10857;52.228;21.026;2023-10-13T14:43:41;17.60;99.90
21393;DHT22;10857;52.228;21.026;2023-10-13T14:46:19;17.60;99.90
21393;DHT22;10857;52.228;21.026;2023-10-13T14:49:03;17.60;99.90
21393;DHT22;10857;52.228;21.026;2023-10-13T14:51:56;17.60;99.90
21393;DHT22;10857;52.228;21.026;2023-10-13T14:54:31;17.60;99.90
21393;DHT22;10857;52.228;21.026;2023-10-13T14:57:20;17.60;99.90
21393;DHT22;10857;52.228;21.026;2023-10-13T15:00:02;17.50;99.90
21393;DHT22;10857;52.228;21.026;2023-10-13T15:02:43;17.50;99.90
21393;DHT22;10857;52.228;21.026;2023-10-13T15:05:27;17.50;99.90
21393;DHT22;10857;52.228;21.026;2023-10-13T15:08:05;17.50;99.90
21393;DHT22;10857;52.228;21.026;2023-10-13T15:10:36;17.50;99.90
21393;DHT22;10857;52.228;21.026;2023-10-13T15:13:13;17.50;99.90
21393;DHT22;10857;52.228;21.026;2023-10-13T15:16:01;17.50;99.90
21393;DHT22;10857;52.228;21.026;2023-10-13T15:18:33;17.50;99.90
21393;DHT22;10857;52.228;21.026;2023-10-13T15:21:01;17.50;99.90
21393;DHT22;10857;52.228;21.026;2023-10-13T15:23:29;17.40;99.90
21393;DHT22;10857;52.228;21.026;2023-10-13T15:26:03;17.40;99.90
21393;DHT22;10857;52.228;21.026;2023-10-13T15:28:40;17.40;99.90
21393;DHT22;10857;52.228;21.026;2023-10-13T15:31:23;17.40;99.90
21393;DHT22;10857;52.228;21.026;2023-10-13T15:34:12;17.40;99.90
21393;DHT22;10857;52.228;21.026;2023-10-13T15:36:44;17.40;99.90
21393;DHT22;10857;52.228;21.026;2023-10-13T15:39:15;17.40;99.90
21393;DHT22;10857;52.228;21.026;2023-10-13T15:41:42;17.40;99.90
21393;DHT22;10857;52.228;21.026;2023-10-13T15:44:12;17.30;99.90
21393;DHT22;10857;52.228;21.026;2023-10-13T15:46:42;17.30;99.90
21393;DHT22;10857;52.228;21.026;2023-10-13T15:49:44;17.30;99.90
21393;DHT22;10857;52.228;21.026;2023-10-13T15:52:14;17.30;99.90
21393;DHT22;10857;52.228;21.026;2023-10-13T15:54:47;17.30;99.90
21393;DHT22;10857;52.228;21.026;2023-10-13T15:57:15;17.30;99.90
21393;DHT22;10857;52.228;21.026;2023-10-13T15:59:52;17.30;99.90
21393;DHT22;10857;52.228;21.026;2023-10-13T16:02:19;17.20;99.90
21393;DHT22;10857;52.228;21.026;2023-10-13T16:04:50;17.20;99.90
21393;DHT22;10857;52.228;21.026;2023-10-13T16:07:18;17.20;99.90
21393;DHT22;10857;52.228;21.026;2023-10-13T16:09:47;17.20;99.90
21393;DHT22;10857;52.228;21.026;2023-10-13T16:12:25;17.20;99.90
21393;DHT22;10857;52.228;21.026;2023-10-13T16:14:55;17.20;99.90
21393;DHT22;10857;52.228;21.026;2023-10-13T16:17:23;17.20;99.90
21393;DHT22;10857;52.228;21.026;2023-10-13T16:19:51;17.20;99.90
21393;DHT22;10857;52.228;21.026;2023-10-13T16:22:21;17.20;99.90
21393;DHT22;10857;52.228;21.026;2023-10-13T16:24:48;17.30;99.90
21393;DHT22;10857;52.228;21.026;2023-10-13T16:27:15;17.20;99.90
21393;DHT22;10857;52.228;21.026;2023-10-13T16:29:46;17.30;99.90
21393;DHT22;10857;52.228;21.026;2023-10-13T16:32:16;17.40;99.90
21393;DHT22;10857;52.228;21.026;2023-10-13T16:34:43;17.40;99.90